KVAY

Details ICAO KVAY (VAY)
Name SOUTH JERSEY RGNL
Region United States
Timezone America/New_York (UTC-5.0)
Plans Departing 4
Arriving 3
Stats Elevation 53 ft / 16 m (AMSL)
Location 39.942889° -74.845718°
Runways 1
Magnetic Variation 12.286° W
Sunrise 2017-12-12 12:13:20 UTC / 2017-12-12 07:13:20 Local
Sunset 2017-12-12 21:35:57 UTC / 2017-12-12 16:35:57 Local
Advertisement - Login to hide

Runways

ID Width Length Bearing (true) Bearing (mag) Surface Threshold Offset Overrun Length
08 50 ft / 15 m 3,904 ft / 1,190 m 69.76° 82.05° Asphalt 0 ft / 0 m 0 ft / 0 m
26 50 ft / 15 m 3,904 ft / 1,190 m 249.77° 262.06° Asphalt 0 ft / 0 m 0 ft / 0 m

Map

Weather


0- 5 10 15 20 25 30 35+ Temperature / ° C

Clouds and Precipitation
Forecast for 2017-12-13 00:00 UTC. Updated an hour ago

Ground ~20,000 ft ~40,000 ft Winds

METAR

KVAY 121954Z AUTO 27004KT 10SM BKN055 BKN070 OVC090 07/00 A2946 RMK AO2 SLP977 T00720000 $

TAF

Not found

Frequencies

Recorded 119.32 MHz ASOS
Approach 124.15 MHz MC GUIRE APP/DEP
Unicom 121.72 MHz CTAF/UNICOM
Warning: Do not use this data for real-world aviation or navigation. No guarantee of current accuracy is given.